Time;durP1;ratioP1;P1;durP2;ratioP2;P2;SDS_P1;SDS_P2;PMS_P1;PMS_P2;Temp;Humidity;BMP_temperature;BMP_pressure;BME280_temperature;BME280_humidity;BME280_pressure;Samples;Min_cycle;Max_cycle;Signal;HPM_P1;HPM_P2
2022/03/18 00:02:08;;;;;;;9.52;3.13;;;15.20;87.50;;;;;;4997764;28;20050;-71
2022/03/18 00:04:34;;;;;;;8.65;3.58;;;15.00;87.20;;;;;;5015106;28;20053;-70
2022/03/18 00:07:00;;;;;;;9.20;2.95;;;15.00;87.30;;;;;;5015977;28;20045;-70
2022/03/18 00:09:25;;;;;;;7.78;3.10;;;15.00;87.30;;;;;;5015919;28;20496;-70
2022/03/18 00:11:51;;;;;;;8.95;3.10;;;15.20;87.40;;;;;;5016462;28;20468;-70
2022/03/18 00:14:19;;;;;;;11.02;3.03;;;14.80;87.60;;;;;;5015816;28;20105;-71
2022/03/18 00:16:45;;;;;;;7.90;2.70;;;14.90;87.10;;;;;;5015575;28;20050;-71
2022/03/18 00:19:11;;;;;;;8.63;2.83;;;15.00;87.10;;;;;;5015822;28;20042;-71
2022/03/18 00:21:37;;;;;;;7.18;2.80;;;15.00;84.40;;;;;;5014558;28;20488;-70
2022/03/18 00:24:06;;;;;;;10.95;3.20;;;14.90;86.90;;;;;;4997647;28;20061;-65
2022/03/18 00:26:32;;;;;;;8.20;2.50;;;14.60;84.20;;;;;;5015639;28;20053;-65
2022/03/18 00:28:57;;;;;;;9.02;2.95;;;15.00;87.00;;;;;;5015421;28;20046;-70
2022/03/18 00:31:23;;;;;;;7.88;2.60;;;14.80;86.80;;;;;;5014289;28;20042;-71
2022/03/18 00:33:49;;;;;;;8.13;3.40;;;15.00;86.90;;;;;;4997596;28;20037;-71
2022/03/18 00:36:14;;;;;;;8.52;2.80;;;14.80;87.10;;;;;;5014563;28;20491;-70
2022/03/18 00:38:40;;;;;;;9.93;3.05;;;14.70;84.20;;;;;;5007371;28;20042;-70
2022/03/18 00:41:06;;;;;;;7.80;2.75;;;14.90;86.90;;;;;;4995467;28;20054;-70
2022/03/18 00:43:32;;;;;;;9.70;2.95;;;14.90;86.90;;;;;;4995290;28;20046;-71
2022/03/18 00:45:57;;;;;;;8.68;2.78;;;14.80;84.20;;;;;;4995733;28;20050;-71
2022/03/18 00:53:52;;;;;;;6.63;2.65;;;14.90;87.00;;;;;;4994525;28;20396;-70
2022/03/18 00:56:18;;;;;;;8.55;2.90;;;14.60;86.60;;;;;;4995837;28;20051;-71
2022/03/18 00:58:44;;;;;;;6.63;2.92;;;;;;;;;;4995089;28;20050;-67
2022/03/18 01:01:10;;;;;;;7.32;2.50;;;15.00;87.00;;;;;;4994981;28;20125;-71
2022/03/18 01:03:36;;;;;;;7.53;2.40;;;14.80;86.70;;;;;;4995302;28;20050;-70
2022/03/18 01:06:02;;;;;;;8.93;2.95;;;14.40;86.50;;;;;;4995168;28;20440;-70
2022/03/18 01:08:28;;;;;;;6.85;2.80;;;;;;;;;;4995194;28;20480;-69
2022/03/18 01:10:54;;;;;;;10.32;3.28;;;14.70;86.60;;;;;;4995257;28;20415;-71
2022/03/18 01:13:21;;;;;;;7.63;3.10;;;14.90;86.80;;;;;;4995616;28;20129;-70
2022/03/18 01:15:46;;;;;;;9.30;2.95;;;14.60;86.60;;;;;;4995112;28;20049;-70
2022/03/18 01:18:12;;;;;;;6.60;2.60;;;14.90;86.80;;;;;;4994766;28;20481;-70
2022/03/18 01:20:38;;;;;;;8.13;2.72;;;14.70;86.70;;;;;;4995110;28;20049;-70
2022/03/18 01:23:06;;;;;;;8.60;2.70;;;15.00;86.70;;;;;;4994918;28;20435;-71
2022/03/18 01:25:35;;;;;;;8.65;2.85;;;14.70;86.50;;;;;;4994916;28;20046;-70
2022/03/18 01:28:01;;;;;;;7.65;2.60;;;14.50;86.40;;;;;;4994855;28;20050;-70
2022/03/18 01:30:29;;;;;;;9.48;3.20;;;14.70;83.40;;;;;;4995290;28;20054;-71
2022/03/18 01:32:55;;;;;;;9.75;3.60;;;14.80;86.50;;;;;;5007329;28;20046;-70
2022/03/18 01:35:21;;;;;;;6.97;2.45;;;14.90;86.60;;;;;;5014222;28;20053;-70
2022/03/18 01:37:47;;;;;;;10.65;2.80;;;;;;;;;;5014322;28;20053;-70
2022/03/18 01:40:13;;;;;;;8.45;2.72;;;14.70;86.60;;;;;;5013979;28;20412;-70
2022/03/18 01:42:39;;;;;;;7.45;2.60;;;14.70;86.70;;;;;;4996044;28;20060;-71
2022/03/18 01:45:05;;;;;;;9.60;3.17;;;14.70;86.40;;;;;;5013937;28;20373;-71
2022/03/18 01:47:31;;;;;;;8.15;2.80;;;14.50;86.30;;;;;;4998323;28;20054;-70
2022/03/18 01:49:58;;;;;;;9.02;3.35;;;14.50;83.50;;;;;;4994439;28;20042;-71
2022/03/18 01:52:24;;;;;;;8.30;3.08;;;14.40;86.30;;;;;;4994498;28;20396;-71
2022/03/18 01:54:51;;;;;;;8.70;3.03;;;14.70;82.80;;;;;;4995005;28;20049;-70
2022/03/18 01:57:21;;;;;;;9.98;3.00;;;14.40;86.10;;;;;;4976611;28;20042;-71
2022/03/18 01:59:48;;;;;;;5.85;2.65;;;14.80;86.40;;;;;;4994135;28;20054;-70
2022/03/18 02:02:15;;;;;;;8.27;3.25;;;15.00;86.70;;;;;;4993971;28;20066;-71
2022/03/18 02:04:41;;;;;;;7.22;3.00;;;14.60;86.20;;;;;;4994472;28;20051;-70
2022/03/18 02:07:07;;;;;;;9.48;2.60;;;14.60;86.30;;;;;;4976701;28;20086;-71
2022/03/18 02:09:33;;;;;;;8.57;2.72;;;14.60;86.20;;;;;;4993982;28;20077;-70
2022/03/18 02:12:00;;;;;;;7.70;3.13;;;14.70;86.20;;;;;;4994297;28;20038;-71
2022/03/18 02:14:31;;;;;;;7.63;2.90;;;14.70;83.60;;;;;;4994335;28;20452;-71
2022/03/18 02:16:56;;;;;;;8.32;2.90;;;14.40;86.00;;;;;;4993862;28;20050;-71
2022/03/18 02:19:22;;;;;;;6.55;2.97;;;14.50;83.40;;;;;;4994515;28;20053;-71
2022/03/18 02:21:48;;;;;;;8.13;3.15;;;14.60;86.20;;;;;;4994632;28;20050;-71
2022/03/18 02:24:14;;;;;;;8.70;3.50;;;14.70;86.10;;;;;;4992912;28;20061;-71
2022/03/18 02:26:40;;;;;;;9.20;3.13;;;14.60;83.40;;;;;;4993014;28;20038;-70
2022/03/18 02:29:05;;;;;;;9.55;3.13;;;14.60;86.00;;;;;;4993656;28;20054;-71
2022/03/18 02:31:31;;;;;;;11.13;3.13;;;14.60;86.20;;;;;;4995317;28;20089;-71
2022/03/18 02:33:57;;;;;;;8.52;3.17;;;14.50;86.00;;;;;;5013630;28;20037;-70
2022/03/18 02:36:23;;;;;;;7.43;2.67;;;14.80;86.30;;;;;;4995764;28;20492;-70
2022/03/18 02:38:48;;;;;;;8.23;3.10;;;14.40;83.30;;;;;;5012385;28;20046;-71
2022/03/18 02:41:14;;;;;;;8.43;3.20;;;14.60;86.00;;;;;;5013482;28;20050;-71
2022/03/18 02:43:40;;;;;;;9.32;3.45;;;14.50;83.30;;;;;;5013356;28;20045;-71
2022/03/18 02:46:06;;;;;;;8.50;2.97;;;14.60;85.90;;;;;;5012048;28;20050;-71
2022/03/18 02:48:31;;;;;;;9.77;2.90;;;14.70;86.00;;;;;;5013601;28;20046;-71
2022/03/18 02:50:57;;;;;;;9.73;3.60;;;;;;;;;;5013041;28;20070;-71
2022/03/18 02:53:23;;;;;;;9.52;3.95;;;14.50;86.10;;;;;;4996056;28;20129;-71
2022/03/18 02:55:49;;;;;;;7.38;2.88;;;14.50;86.40;;;;;;4995973;28;20081;-71
2022/03/18 02:58:15;;;;;;;8.18;2.78;;;14.30;85.80;;;;;;4993873;28;20105;-67
2022/03/18 03:00:40;;;;;;;7.35;2.97;;;14.40;85.90;;;;;;4996081;28;20497;-71
2022/03/18 03:03:07;;;;;;;9.43;3.55;;;;;;;;;;4978177;28;20090;-70
2022/03/18 03:08:17;;;;;;;9.52;3.67;;;14.60;83.30;;;;;;4977741;28;20051;-70
2022/03/18 03:10:43;;;;;;;9.55;3.78;;;14.60;85.90;;;;;;4978437;28;20043;-71
2022/03/18 03:13:12;;;;;;;9.10;3.28;;;;;;;;;;4978053;28;20043;-71
2022/03/18 03:15:38;;;;;;;10.13;3.75;;;14.50;85.90;;;;;;4977655;28;20531;-71
2022/03/18 03:18:05;;;;;;;8.15;3.70;;;14.50;85.80;;;;;;4977580;28;20062;-71
2022/03/18 03:20:31;;;;;;;9.98;3.95;;;14.50;85.80;;;;;;4977851;28;20053;-71
2022/03/18 03:22:57;;;;;;;9.32;3.88;;;;;;;;;;4960131;28;20061;-71
2022/03/18 03:25:23;;;;;;;9.25;3.97;;;14.60;85.80;;;;;;4977848;28;20043;-71
2022/03/18 03:27:52;;;;;;;9.13;3.90;;;14.50;85.70;;;;;;4978404;28;20042;-71
2022/03/18 03:30:18;;;;;;;12.38;4.07;;;14.50;85.90;;;;;;4996813;28;20121;-71
2022/03/18 03:32:44;;;;;;;10.57;3.83;;;;;;;;;;4997057;28;20141;-71
2022/03/18 03:35:10;;;;;;;9.50;3.88;;;14.50;85.70;;;;;;4996934;28;20070;-71
2022/03/18 03:37:36;;;;;;;15.32;3.75;;;14.70;86.10;;;;;;4996666;28;20058;-70
2022/03/18 03:40:03;;;;;;;9.75;4.13;;;14.40;85.80;;;;;;4996996;28;20125;-71
2022/03/18 03:42:29;;;;;;;9.77;3.88;;;14.50;85.90;;;;;;4996813;28;20042;-65
2022/03/18 03:44:55;;;;;;;11.65;4.18;;;14.40;85.70;;;;;;4996041;28;20034;-71
2022/03/18 03:47:21;;;;;;;10.75;4.68;;;14.30;85.60;;;;;;4996496;28;20046;-71
2022/03/18 03:49:46;;;;;;;9.88;3.80;;;14.50;85.70;;;;;;4996512;28;20093;-70
2022/03/18 03:52:12;;;;;;;8.38;3.92;;;14.50;85.80;;;;;;4996405;28;20042;-71
2022/03/18 03:54:40;;;;;;;8.05;3.70;;;;;;;;;;4996621;28;20038;-71
2022/03/18 03:57:06;;;;;;;9.13;4.18;;;14.50;85.70;;;;;;4996695;28;20105;-71
2022/03/18 03:59:32;;;;;;;9.75;3.78;;;14.30;85.50;;;;;;4996872;28;20129;-71
2022/03/18 04:01:58;;;;;;;8.18;4.32;;;14.40;85.60;;;;;;4993623;28;20788;-70
2022/03/18 04:04:27;;;;;;;8.88;3.65;;;14.30;85.40;;;;;;4976965;28;20085;-71
2022/03/18 04:06:53;;;;;;;10.68;4.63;;;;;;;;;;4976737;28;20094;-71
2022/03/18 04:09:19;;;;;;;10.80;3.92;;;14.30;82.80;;;;;;4976912;28;20556;-69
2022/03/18 04:11:44;;;;;;;9.77;4.22;;;14.40;85.60;;;;;;4976185;28;20043;-72
2022/03/18 04:14:10;;;;;;;8.05;3.60;;;14.30;85.90;;;;;;4976656;28;20074;-70
2022/03/18 04:16:36;;;;;;;9.00;4.20;;;14.00;85.50;;;;;;4976888;28;20083;-71
2022/03/18 04:19:03;;;;;;;9.00;3.72;;;14.30;85.60;;;;;;4977057;28;20485;-71
2022/03/18 04:21:29;;;;;;;11.07;3.95;;;14.20;85.60;;;;;;4976810;28;20057;-71
2022/03/18 04:23:55;;;;;;;8.32;3.85;;;14.40;85.60;;;;;;4976223;28;20058;-71
2022/03/18 04:26:21;;;;;;;8.52;4.03;;;14.30;85.50;;;;;;4976620;28;20039;-71
2022/03/18 04:28:46;;;;;;;9.10;4.18;;;14.30;85.60;;;;;;4976671;28;20365;-71
2022/03/18 04:31:12;;;;;;;9.73;4.00;;;14.50;85.70;;;;;;4976327;28;20042;-71
2022/03/18 04:33:38;;;;;;;9.73;4.15;;;14.10;82.90;;;;;;4994846;28;20053;-70
2022/03/18 04:36:04;;;;;;;8.45;4.03;;;14.20;85.50;;;;;;4994934;28;20374;-70
2022/03/18 04:38:30;;;;;;;10.15;4.00;;;14.20;85.50;;;;;;4994428;28;20046;-70
2022/03/18 04:40:56;;;;;;;9.77;4.15;;;14.30;85.50;;;;;;4995549;28;20042;-70
2022/03/18 04:43:21;;;;;;;9.95;3.97;;;14.20;85.40;;;;;;4995718;28;20042;-71
2022/03/18 04:45:47;;;;;;;8.90;3.67;;;14.30;85.50;;;;;;4995423;28;20039;-71
2022/03/18 04:48:13;;;;;;;8.38;4.20;;;;;;;;;;4995398;28;20054;-71
2022/03/18 04:50:39;;;;;;;8.07;4.18;;;14.30;83.00;;;;;;4995698;28;20397;-71
2022/03/18 04:53:05;;;;;;;9.75;4.20;;;14.30;85.50;;;;;;4994466;28;20050;-71
2022/03/18 04:55:30;;;;;;;9.48;4.38;;;14.20;85.50;;;;;;4995158;28;20053;-71
2022/03/18 04:57:56;;;;;;;9.48;4.40;;;14.20;85.50;;;;;;4978626;28;20058;-71
2022/03/18 05:00:24;;;;;;;7.95;3.75;;;;;;;;;;4995478;28;20065;-71
2022/03/18 05:02:51;;;;;;;13.82;4.60;;;14.30;85.40;;;;;;5012623;28;20054;-70
2022/03/18 05:05:19;;;;;;;8.02;4.32;;;14.20;85.40;;;;;;5014553;28;20053;-70
2022/03/18 05:07:51;;;;;;;10.32;3.90;;;14.00;85.20;;;;;;5014417;28;20056;-69
2022/03/18 05:10:18;;;;;;;10.57;4.50;;;;;;;;;;5010089;28;20043;-70
2022/03/18 05:12:45;;;;;;;7.40;4.00;;;;;;;;;;4977860;28;20046;-70
2022/03/18 05:15:11;;;;;;;10.45;4.57;;;;;;;;;;4995256;28;20034;-71
2022/03/18 05:17:40;;;;;;;9.90;4.25;;;14.20;85.50;;;;;;4995500;28;20085;-72
2022/03/18 05:20:07;;;;;;;10.63;4.13;;;14.20;84.30;;;;;;4995105;28;20055;-71
2022/03/18 05:22:34;;;;;;;9.45;4.68;;;;;;;;;;4993756;28;20050;-70
2022/03/18 05:25:00;;;;;;;10.48;4.85;;;14.10;85.40;;;;;;4994991;28;20092;-71
2022/03/18 05:27:26;;;;;;;9.38;4.25;;;14.30;85.50;;;;;;4995231;28;20089;-69
2022/03/18 05:29:51;;;;;;;10.38;3.95;;;14.20;85.40;;;;;;4994616;28;20049;-71
2022/03/18 05:32:18;;;;;;;11.45;4.85;;;;;;;;;;5002035;28;20078;-70
2022/03/18 05:34:44;;;;;;;11.50;4.80;;;14.10;85.30;;;;;;5014274;28;20369;-71
2022/03/18 05:37:10;;;;;;;11.25;4.13;;;13.90;85.20;;;;;;4996393;28;20050;-70
2022/03/18 05:39:36;;;;;;;10.38;3.92;;;14.30;82.80;;;;;;5014152;28;20053;-71
2022/03/18 05:42:02;;;;;;;8.10;4.45;;;14.10;85.40;;;;;;4996754;28;20393;-71
2022/03/18 05:44:28;;;;;;;8.70;4.20;;;14.20;85.30;;;;;;5013408;28;20046;-71
2022/03/18 05:46:53;;;;;;;10.02;3.92;;;14.50;85.50;;;;;;4996360;28;20080;-71
2022/03/18 05:49:19;;;;;;;9.32;3.90;;;14.10;85.30;;;;;;5013071;28;20037;-70
2022/03/18 05:51:46;;;;;;;11.38;4.65;;;14.10;82.60;;;;;;5014171;28;20411;-70
2022/03/18 05:54:12;;;;;;;7.97;4.38;;;14.00;85.30;;;;;;5014209;28;20114;-69
2022/03/18 05:56:52;;;;;;;9.90;4.57;;;14.40;85.90;;;;;;5014141;28;20046;-72
2022/03/18 05:59:28;;;;;;;7.45;4.03;;;14.60;85.90;;;;;;5012929;28;20052;-73
2022/03/18 06:01:54;;;;;;;6.88;3.80;;;;;;;;;;5001994;28;20058;-71
2022/03/18 06:04:20;;;;;;;11.35;4.43;;;14.20;85.10;;;;;;4984563;28;20517;-66
2022/03/18 06:06:47;;;;;;;8.20;4.22;;;14.50;85.20;;;;;;4993346;28;20077;-67
2022/03/18 06:12:01;;;;;;;10.20;4.18;;;14.50;81.90;;;;;;5012532;28;20052;-65
2022/03/18 06:14:28;;;;;;;8.30;3.90;;;14.60;85.20;;;;;;4995615;28;20053;-65
2022/03/18 06:16:56;;;;;;;10.85;4.68;;;14.50;82.00;;;;;;5013476;28;20041;-65
2022/03/18 06:19:22;;;;;;;7.80;3.85;;;14.70;81.50;;;;;;4993949;28;20050;-66
2022/03/18 06:21:48;;;;;;;8.20;4.07;;;14.50;84.90;;;;;;4993768;28;20438;-65
2022/03/18 06:24:16;;;;;;;10.43;4.13;;;14.80;82.00;;;;;;4993531;28;20138;-66
2022/03/18 06:26:42;;;;;;;8.60;3.97;;;14.80;85.00;;;;;;4993883;28;20048;-65
2022/03/18 06:29:08;;;;;;;10.63;4.55;;;14.90;84.90;;;;;;4993387;28;20050;-66
2022/03/18 06:31:34;;;;;;;10.60;4.63;;;14.50;84.50;;;;;;4990151;28;20054;-67
2022/03/18 06:34:00;;;;;;;10.13;4.53;;;;;;;;;;4973172;28;20047;-66
2022/03/18 06:36:26;;;;;;;9.80;4.70;;;15.20;84.60;;;;;;4984016;28;20046;-67
2022/03/18 06:38:52;;;;;;;9.23;4.63;;;15.20;84.60;;;;;;4997635;28;20054;-67
2022/03/18 06:41:19;;;;;;;9.95;4.85;;;15.00;84.30;;;;;;4979916;28;20039;-67
2022/03/18 06:43:46;;;;;;;10.40;4.45;;;15.20;84.20;;;;;;4997403;28;20050;-65
2022/03/18 06:46:12;;;;;;;9.20;4.10;;;15.40;84.10;;;;;;4997529;28;20117;-65
2022/03/18 06:48:38;;;;;;;7.60;4.22;;;15.20;84.00;;;;;;4997592;28;20054;-67
2022/03/18 06:51:03;;;;;;;6.97;3.88;;;15.40;84.00;;;;;;4997674;28;20045;-72
2022/03/18 06:53:29;;;;;;;9.82;4.53;;;;;;;;;;4996431;28;20050;-69
2022/03/18 06:55:56;;;;;;;8.23;4.03;;;;;;;;;;4996995;28;20121;-71
2022/03/18 06:58:21;;;;;;;8.60;4.15;;;15.90;83.80;;;;;;4997302;28;20050;-72
2022/03/18 07:00:47;;;;;;;9.05;4.22;;;16.10;83.70;;;;;;4998214;28;20061;-72
2022/03/18 07:03:13;;;;;;;10.65;4.18;;;16.00;83.50;;;;;;5016464;28;20058;-72
2022/03/18 07:05:39;;;;;;;8.48;4.00;;;16.00;83.30;;;;;;5016558;28;20046;-72
2022/03/18 07:08:05;;;;;;;8.63;4.20;;;16.00;83.20;;;;;;5016476;28;20050;-72
2022/03/18 07:10:31;;;;;;;8.60;3.80;;;16.00;83.00;;;;;;5015953;28;20034;-71
2022/03/18 07:12:57;;;;;;;7.55;4.20;;;16.40;83.10;;;;;;5016767;28;20120;-73
2022/03/18 07:15:22;;;;;;;10.95;4.20;;;16.40;83.00;;;;;;5016351;28;20077;-72
2022/03/18 07:18:01;;;;;;;7.53;4.32;;;16.40;82.90;;;;;;5016233;28;20046;-72
2022/03/18 07:20:34;;;;;;;8.48;3.92;;;16.50;82.90;;;;;;5016539;28;20046;-72
2022/03/18 07:23:00;;;;;;;;;;;16.80;80.10;;;;;;5016141;28;20046;-72
2022/03/18 07:25:26;;;;;;;10.30;4.57;;;16.70;82.70;;;;;;5016234;28;20279;-72
2022/03/18 07:27:52;;;;;;;8.50;4.00;;;;;;;;;;4981256;28;20082;-72
2022/03/18 07:30:19;;;;;;;11.07;5.13;;;;;;;;;;4978974;28;20105;-72
2022/03/18 07:32:44;;;;;;;9.02;4.75;;;16.90;82.50;;;;;;5008276;28;20046;-71
2022/03/18 07:35:10;;;;;;;8.15;4.45;;;17.00;79.70;;;;;;5016491;28;20100;-62
2022/03/18 07:37:36;;;;;;;9.57;4.25;;;17.00;82.40;;;;;;5016607;28;20042;-72
2022/03/18 07:40:03;;;;;;;8.85;4.10;;;17.10;82.30;;;;;;5011565;28;20088;-66
2022/03/18 07:42:41;;;;;;;7.68;4.15;;;17.10;79.50;;;;;;5015008;28;20050;-71
2022/03/18 07:45:08;;;;;;;8.60;4.22;;;17.30;82.20;;;;;;5015928;28;20075;-72
2022/03/18 07:47:34;;;;;;;7.35;3.95;;;17.40;82.10;;;;;;5019683;28;20050;-70
2022/03/18 07:49:59;;;;;;;10.80;4.50;;;17.40;82.00;;;;;;5016546;28;20034;-72
2022/03/18 07:52:26;;;;;;;9.57;4.90;;;17.50;82.00;;;;;;4996412;28;20405;-71
2022/03/18 07:54:51;;;;;;;7.07;4.07;;;17.60;81.90;;;;;;4996350;28;20046;-69
2022/03/18 07:57:17;;;;;;;7.55;4.07;;;17.80;81.90;;;;;;4996661;28;20510;-63
2022/03/18 07:59:43;;;;;;;9.13;4.25;;;17.80;81.70;;;;;;4997258;28;20448;-71
2022/03/18 08:02:09;;;;;;;10.00;4.40;;;17.70;81.50;;;;;;4994470;28;20394;-70
2022/03/18 08:04:35;;;;;;;7.95;4.07;;;17.90;81.60;;;;;;4996133;28;20076;-78
2022/03/18 08:07:02;;;;;;;8.63;4.25;;;17.60;81.50;;;;;;4996492;28;20038;-74
2022/03/18 08:09:28;;;;;;;8.65;4.30;;;18.10;82.00;;;;;;4999657;28;20101;-68
2022/03/18 08:11:54;;;;;;;11.02;4.30;;;18.00;82.10;;;;;;5015754;28;20046;-70
2022/03/18 08:14:20;;;;;;;8.40;3.72;;;;;;;;;;5015993;28;20038;-69
2022/03/18 08:16:46;;;;;;;8.82;3.92;;;18.10;79.20;;;;;;4997183;28;20046;-68
2022/03/18 08:19:12;;;;;;;9.77;3.50;;;18.30;82.20;;;;;;5015578;28;20042;-68
2022/03/18 08:21:37;;;;;;;8.75;4.05;;;18.40;82.10;;;;;;5014795;28;20072;-69
2022/03/18 08:24:04;;;;;;;7.55;4.10;;;18.50;79.40;;;;;;5016080;28;20038;-63
2022/03/18 08:26:29;;;;;;;9.93;4.30;;;18.40;81.90;;;;;;5015745;28;20046;-69
2022/03/18 08:28:56;;;;;;;10.10;4.32;;;18.40;81.90;;;;;;5014768;28;20407;-71
2022/03/18 08:31:22;;;;;;;7.82;3.83;;;18.50;82.00;;;;;;5015614;28;20431;-64
2022/03/18 08:33:48;;;;;;;8.15;4.05;;;18.60;82.10;;;;;;5013933;28;20122;-72
2022/03/18 08:36:13;;;;;;;9.65;3.63;;;18.70;80.80;;;;;;5008879;28;20070;-65
2022/03/18 08:38:40;;;;;;;8.00;3.55;;;18.90;82.40;;;;;;4996931;28;20404;-62
2022/03/18 08:41:06;;;;;;;9.30;3.78;;;18.90;82.50;;;;;;5015411;28;20095;-66
2022/03/18 08:43:32;;;;;;;8.52;3.53;;;18.90;82.60;;;;;;5015362;28;20130;-62
2022/03/18 08:45:58;;;;;;;9.88;3.83;;;;;;;;;;5015378;28;20042;-73
2022/03/18 08:48:24;;;;;;;9.30;3.72;;;18.90;82.50;;;;;;5013234;28;20046;-68
2022/03/18 08:50:50;;;;;;;11.75;3.70;;;18.90;82.50;;;;;;5014471;28;20049;-70
2022/03/18 08:53:16;;;;;;;12.10;6.18;;;19.00;81.80;;;;;;4995315;28;20105;-70
2022/03/18 08:55:41;;;;;;;12.25;7.38;;;19.20;81.50;;;;;;4995655;28;20070;-65
2022/03/18 08:58:10;;;;;;;11.43;5.60;;;19.20;81.70;;;;;;4993838;28;20046;-63
2022/03/18 09:00:36;;;;;;;11.80;6.32;;;18.90;78.80;;;;;;4995279;28;20053;-69
2022/03/18 09:03:02;;;;;;;12.63;5.88;;;;;;;;;;4994911;28;20086;-62
2022/03/18 09:05:29;;;;;;;16.42;5.45;;;18.60;81.50;;;;;;4995000;28;20058;-61
2022/03/18 09:07:55;;;;;;;10.95;5.78;;;18.90;81.60;;;;;;4995529;28;20050;-63
2022/03/18 09:10:21;;;;;;;12.35;5.75;;;18.90;81.70;;;;;;4995035;28;20053;-66
2022/03/18 09:12:58;;;;;;;11.13;5.88;;;18.80;77.10;;;;;;4994545;28;20042;-73
2022/03/18 09:15:25;;;;;;;14.05;6.03;;;19.00;78.90;;;;;;4995154;28;20066;-62
2022/03/18 09:17:50;;;;;;;11.60;6.60;;;18.90;81.80;;;;;;4995207;28;20042;-62
2022/03/18 09:20:16;;;;;;;10.48;5.47;;;18.70;81.70;;;;;;4996041;28;20575;-62
2022/03/18 09:22:42;;;;;;;15.05;6.45;;;19.10;82.00;;;;;;5014600;28;20046;-61
2022/03/18 09:25:08;;;;;;;12.02;5.88;;;18.70;81.90;;;;;;5010349;28;20049;-62
2022/03/18 09:27:34;;;;;;;13.55;6.47;;;18.90;82.20;;;;;;4994698;28;20574;-62
2022/03/18 09:30:00;;;;;;;12.30;6.60;;;18.80;82.10;;;;;;4994460;28;20125;-67
2022/03/18 09:32:27;;;;;;;11.80;6.72;;;18.90;82.20;;;;;;4994420;28;20046;-67
2022/03/18 09:34:54;;;;;;;13.15;6.50;;;18.90;79.10;;;;;;4976927;28;20046;-64
2022/03/18 09:37:20;;;;;;;13.85;7.40;;;18.80;82.20;;;;;;4994265;28;20049;-66
2022/03/18 09:39:46;;;;;;;14.48;5.80;;;18.80;82.40;;;;;;5003644;28;20038;-62
2022/03/18 09:42:12;;;;;;;15.32;6.32;;;19.10;82.70;;;;;;4995467;28;20106;-61
2022/03/18 09:44:38;;;;;;;12.52;6.38;;;19.10;82.70;;;;;;5014301;28;20045;-63
2022/03/18 09:47:05;;;;;;;12.93;6.18;;;19.00;82.60;;;;;;5014274;28;20037;-62
2022/03/18 09:49:30;;;;;;;14.25;6.25;;;19.00;82.60;;;;;;5014029;28;20069;-61
2022/03/18 09:51:56;;;;;;;13.02;6.07;;;19.00;82.80;;;;;;4993401;28;20038;-61
2022/03/18 09:54:22;;;;;;;13.30;5.60;;;19.20;83.20;;;;;;4994224;28;20126;-62
2022/03/18 09:56:48;;;;;;;12.02;5.35;;;18.90;82.70;;;;;;4993328;28;20044;-61
2022/03/18 09:59:14;;;;;;;16.20;6.03;;;18.70;82.70;;;;;;5002851;28;20092;-62
2022/03/18 10:01:40;;;;;;;14.27;6.43;;;19.00;79.80;;;;;;5012473;28;20412;-62
2022/03/18 10:04:11;;;;;;;10.77;4.53;;;18.90;83.00;;;;;;5001025;28;20053;-62
2022/03/18 10:06:38;;;;;;;16.35;4.88;;;19.10;82.90;;;;;;4989352;28;20572;-64
2022/03/18 10:09:05;;;;;;;14.70;5.65;;;18.90;83.00;;;;;;4993211;28;20093;-62
2022/03/18 10:11:37;;;;;;;11.25;4.60;;;19.00;83.00;;;;;;4998677;28;20108;-61
2022/03/18 10:14:04;;;;;;;17.65;5.38;;;19.10;83.10;;;;;;5011543;28;20042;-63
2022/03/18 10:16:31;;;;;;;19.95;5.53;;;18.90;83.10;;;;;;5006814;28;20078;-63
2022/03/18 10:18:57;;;;;;;26.25;6.68;;;18.80;83.10;;;;;;4976836;28;20042;-65
2022/03/18 10:21:23;;;;;;;17.05;6.03;;;;;;;;;;4994192;28;20042;-65
2022/03/18 10:23:49;;;;;;;18.35;5.40;;;18.80;83.10;;;;;;4997444;28;20042;-64
2022/03/18 10:26:15;;;;;;;23.17;6.63;;;19.00;83.50;;;;;;5010876;28;20046;-64
2022/03/18 10:28:41;;;;;;;41.40;10.55;;;19.30;83.60;;;;;;5013703;28;20049;-65
2022/03/18 10:31:15;;;;;;;32.17;8.20;;;19.10;83.60;;;;;;5013678;28;20094;-65
2022/03/18 10:39:25;;;;;;;23.13;7.20;;;19.00;80.40;;;;;;4976536;28;20105;-61
2022/03/18 10:41:52;;;;;;;21.30;6.72;;;18.90;84.10;;;;;;4993978;28;20401;-61
2022/03/18 10:44:18;;;;;;;20.77;6.75;;;18.90;84.20;;;;;;4992733;28;20050;-61
2022/03/18 10:46:44;;;;;;;71.47;10.05;;;19.00;84.10;;;;;;4993933;28;20101;-61
2022/03/18 10:49:10;;;;;;;18.92;7.32;;;18.70;84.20;;;;;;5009244;28;20050;-69
2022/03/18 10:51:37;;;;;;;19.05;7.53;;;18.50;83.90;;;;;;5005781;28;20041;-65
2022/03/18 10:54:04;;;;;;;15.90;7.18;;;18.90;84.40;;;;;;5013203;28;20049;-65
2022/03/18 10:56:30;;;;;;;17.52;7.75;;;18.80;84.70;;;;;;5013526;28;20046;-65
2022/03/18 10:58:56;;;;;;;17.45;8.02;;;18.70;84.50;;;;;;4995879;28;20046;-65
2022/03/18 11:01:22;;;;;;;19.17;6.95;;;18.70;85.00;;;;;;5009501;28;20054;-61
2022/03/18 11:03:48;;;;;;;17.52;7.57;;;18.50;84.60;;;;;;4975802;28;20059;-61
2022/03/18 11:06:16;;;;;;;14.43;6.05;;;18.80;84.90;;;;;;4976285;28;20416;-65
2022/03/18 11:08:45;;;;;;;19.17;6.20;;;18.70;85.00;;;;;;4955759;28;20046;-65
2022/03/18 11:11:17;;;;;;;18.85;7.25;;;18.80;85.00;;;;;;4993791;28;20069;-66
2022/03/18 11:14:03;;;;;;;13.65;5.32;;;18.80;85.00;;;;;;4993649;28;20046;-61
2022/03/18 11:16:39;;;;;;;14.80;6.88;;;18.60;84.90;;;;;;4993643;28;20046;-61
2022/03/18 11:19:14;;;;;;;14.70;7.00;;;18.50;84.90;;;;;;4991660;28;20047;-61
2022/03/18 11:21:40;;;;;;;14.40;6.22;;;18.70;85.00;;;;;;4973702;28;20129;-65
2022/03/18 11:24:12;;;;;;;16.58;6.43;;;18.90;85.50;;;;;;4976100;28;20081;-65
2022/03/18 11:26:45;;;;;;;16.98;6.38;;;18.80;81.80;;;;;;4960913;28;20429;-65
2022/03/18 11:29:13;;;;;;;17.20;6.68;;;18.90;83.10;;;;;;4969862;28;20122;-61
2022/03/18 11:31:40;;;;;;;18.75;6.18;;;18.80;85.30;;;;;;4984320;28;20077;-65
2022/03/18 11:34:07;;;;;;;14.88;5.70;;;19.00;85.70;;;;;;4996791;28;20046;-65
2022/03/18 11:36:35;;;;;;;17.73;5.93;;;18.80;85.30;;;;;;4979367;28;20121;-66
2022/03/18 11:39:03;;;;;;;13.63;5.50;;;19.00;85.40;;;;;;4996432;28;20396;-65
2022/03/18 11:41:49;;;;;;;14.55;5.10;;;19.10;85.60;;;;;;4987680;28;20049;-61
2022/03/18 11:44:37;;;;;;;15.75;6.32;;;19.20;85.80;;;;;;4996287;28;20133;-67
2022/03/18 11:47:30;;;;;;;15.85;5.25;;;19.40;85.90;;;;;;4987915;28;20047;-65
2022/03/18 11:49:56;;;;;;;;;;;19.30;83.40;;;;;;4977510;28;20051;-61
2022/03/18 11:52:22;;;;;;;11.80;5.00;;;19.10;86.10;;;;;;4993510;28;20016;-61
2022/03/18 11:54:51;;;;;;;13.75;5.30;;;19.30;85.90;;;;;;4996024;28;20498;-60
2022/03/18 11:57:50;;;;;;;12.98;5.05;;;19.10;80.90;;;;;;4996487;28;20046;-65
2022/03/18 12:00:41;;;;;;;13.25;4.82;;;19.30;85.50;;;;;;4991376;28;20484;-65
2022/03/18 12:03:07;;;;;;;11.57;4.75;;;19.60;85.60;;;;;;4994256;28;20566;-65
2022/03/18 12:05:33;;;;;;;12.15;4.63;;;19.40;85.50;;;;;;4995256;28;20129;-61
2022/03/18 12:08:03;;;;;;;10.63;4.40;;;19.40;84.40;;;;;;4996208;28;20056;-67
2022/03/18 12:10:36;;;;;;;16.02;6.13;;;19.70;85.70;;;;;;5015622;28;20046;-65
2022/03/18 12:13:03;;;;;;;13.77;4.78;;;19.40;85.50;;;;;;5015883;28;20046;-68
2022/03/18 12:15:29;;;;;;;13.10;5.05;;;19.50;85.50;;;;;;5009316;28;20129;-71
2022/03/18 12:17:56;;;;;;;12.38;4.70;;;19.60;85.60;;;;;;4996422;28;20093;-77
2022/03/18 12:20:25;;;;;;;11.00;4.50;;;19.50;85.50;;;;;;4995880;28;20043;-74
2022/03/18 12:22:52;;;;;;;12.52;5.85;;;19.50;85.90;;;;;;4978511;28;20531;-75
2022/03/18 12:25:20;;;;;;;12.48;5.38;;;19.70;85.70;;;;;;4995922;28;20433;-75
2022/03/18 12:27:46;;;;;;;10.52;5.30;;;19.70;85.90;;;;;;4996116;28;20407;-66
2022/03/18 12:30:15;;;;;;;12.80;5.80;;;19.70;85.50;;;;;;4978478;28;20515;-66
2022/03/18 12:32:51;;;;;;;11.60;4.90;;;19.70;85.60;;;;;;4994770;28;20069;-65
2022/03/18 12:35:17;;;;;;;12.80;5.43;;;19.50;85.40;;;;;;4990661;28;20121;-63
2022/03/18 12:37:45;;;;;;;11.57;5.10;;;19.70;85.60;;;;;;4995873;28;20053;-61
2022/03/18 12:40:11;;;;;;;13.85;5.85;;;19.60;82.80;;;;;;4994492;28;20052;-72
2022/03/18 12:42:53;;;;;;;13.27;5.80;;;19.90;85.70;;;;;;4995659;28;20046;-71
2022/03/18 12:45:45;;;;;;;17.23;6.43;;;19.70;85.60;;;;;;4994266;28;20489;-68
2022/03/18 12:48:17;;;;;;;14.60;6.13;;;19.60;86.00;;;;;;4975181;28;20286;-72
2022/03/18 12:50:47;;;;;;;15.95;6.88;;;19.90;85.90;;;;;;4996212;28;20125;-67
2022/03/18 12:53:15;;;;;;;11.27;6.30;;;19.80;85.80;;;;;;4995474;28;20043;-63
2022/03/18 12:55:45;;;;;;;15.35;7.38;;;19.60;85.60;;;;;;4994968;28;20124;-63
2022/03/18 12:58:11;;;;;;;17.13;6.63;;;19.90;85.70;;;;;;4995073;28;20488;-61
2022/03/18 13:00:39;;;;;;;13.02;6.28;;;19.70;85.60;;;;;;4994095;28;20053;-61
2022/03/18 13:03:06;;;;;;;18.30;7.00;;;19.70;85.50;;;;;;4977650;28;20459;-60
2022/03/18 13:05:33;;;;;;;14.30;6.13;;;;;;;;;;5009367;28;20492;-66
2022/03/18 13:08:08;;;;;;;17.70;6.35;;;19.80;85.50;;;;;;4996822;28;20034;-67